Time;durP1;ratioP1;P1;durP2;ratioP2;P2;SDS_P1;SDS_P2;PMS_P1;PMS_P2;Temp;Humidity;BMP_temperature;BMP_pressure;BME280_temperature;BME280_humidity;BME280_pressure;Samples;Min_cycle;Max_cycle;Signal;HPM_P1;HPM_P2
2023/01/08 00:01:07;;;;;;;;;;;;;;;11.80;75.63;102224.91;5035939;28;19913;-85
2023/01/08 00:03:33;;;;;;;;;;;;;;;11.80;75.63;102225.81;5071237;28;19918;-85
2023/01/08 00:06:04;;;;;;;;;;;;;;;11.77;75.54;102225.59;5089773;28;20035;-85
2023/01/08 00:08:30;;;;;;;;;;;;;;;11.76;75.69;102223.75;5060867;28;19901;-85
2023/01/08 00:10:56;;;;;;;;;;;;;;;11.77;75.40;102230.81;5086349;28;19922;-85
2023/01/08 00:13:21;;;;;;;;;;;;;;;11.75;75.66;102232.41;5089094;28;19967;-85
2023/01/08 00:15:53;;;;;;;;;;;;;;;11.77;75.62;102228.22;5089423;28;20015;-85
2023/01/08 00:18:18;;;;;;;;;;;;;;;11.73;75.30;102223.56;5083628;28;19912;-84
2023/01/08 00:20:44;;;;;;;;;;;;;;;11.75;75.56;102227.19;5089158;28;19919;-85
2023/01/08 00:23:16;;;;;;;;;;;;;;;11.76;75.52;102222.84;5072555;28;19916;-85
2023/01/08 00:25:42;;;;;;;;;;;;;;;11.72;75.42;102229.56;5089359;28;19916;-85
2023/01/08 00:28:08;;;;;;;;;;;;;;;11.74;75.17;102227.97;5089007;28;19919;-86
2023/01/08 00:30:33;;;;;;;;;;;;;;;11.73;75.54;102231.41;5089252;28;19973;-85
2023/01/08 00:32:59;;;;;;;;;;;;;;;11.73;75.33;102231.41;5089033;28;20318;-85
2023/01/08 00:35:24;;;;;;;;;;;;;;;11.72;75.55;102228.66;5073803;28;20468;-84
2023/01/08 00:37:50;;;;;;;;;;;;;;;11.70;75.28;102231.16;5080934;28;20374;-85
2023/01/08 00:40:15;;;;;;;;;;;;;;;11.71;75.53;102238.22;5087305;28;19923;-85
2023/01/08 00:42:41;;;;;;;;;;;;;;;11.68;75.32;102229.25;5088409;28;19920;-85
2023/01/08 00:45:06;;;;;;;;;;;;;;;11.67;75.53;102225.72;5069985;28;19924;-84
2023/01/08 00:47:32;;;;;;;;;;;;;;;11.68;75.25;102231.84;5055003;28;20382;-85
2023/01/08 00:49:57;;;;;;;;;;;;;;;11.66;75.58;102226.50;5090858;28;19920;-85
2023/01/08 00:52:22;;;;;;;;;;;;;;;11.65;75.57;102229.03;5055606;28;21171;-84
2023/01/08 00:54:48;;;;;;;;;;;;;;;11.64;75.54;102233.38;5072942;28;19946;-86
2023/01/08 00:57:13;;;;;;;;;;;;;;;11.64;75.49;102230.75;5073415;28;20054;-86
2023/01/08 00:59:39;;;;;;;;;;;;;;;11.67;75.42;102230.06;5070286;28;19917;-85
2023/01/08 01:02:04;;;;;;;;;;;;;;;11.61;75.61;102220.94;5078091;28;19912;-84
2023/01/08 01:04:30;;;;;;;;;;;;;;;11.62;75.46;102224.50;5078636;28;20356;-85
2023/01/08 01:06:55;;;;;;;;;;;;;;;11.59;75.34;102230.38;5068746;28;19981;-86
2023/01/08 01:09:21;;;;;;;;;;;;;;;11.60;75.44;102234.84;5053812;28;20377;-85
2023/01/08 01:11:46;;;;;;;;;;;;;;;11.61;75.09;102230.50;5062494;28;20352;-85
2023/01/08 01:14:12;;;;;;;;;;;;;;;11.59;75.48;102224.25;5057603;28;20324;-85
2023/01/08 01:16:38;;;;;;;;;;;;;;;11.59;75.37;102226.84;5073586;28;19925;-86
2023/01/08 01:19:04;;;;;;;;;;;;;;;11.56;75.46;102224.94;5084935;28;19921;-85
2023/01/08 01:21:30;;;;;;;;;;;;;;;11.55;75.32;102225.72;5084514;28;19966;-86
2023/01/08 01:23:56;;;;;;;;;;;;;;;11.54;75.61;102223.00;5088179;28;19955;-85
2023/01/08 01:26:22;;;;;;;;;;;;;;;11.55;75.42;102224.81;5080688;28;19943;-86
2023/01/08 01:28:48;;;;;;;;;;;;;;;11.53;75.43;102221.19;5087734;28;20385;-85
2023/01/08 01:31:14;;;;;;;;;;;;;;;11.52;75.52;102214.13;5074923;28;19977;-85
2023/01/08 01:33:40;;;;;;;;;;;;;;;11.51;75.44;102215.81;5087150;28;19920;-85
2023/01/08 01:36:05;;;;;;;;;;;;;;;11.52;75.35;102211.53;5087588;28;20368;-85
2023/01/08 01:38:31;;;;;;;;;;;;;;;11.51;75.46;102217.53;5077115;28;19912;-85
2023/01/08 01:40:56;;;;;;;;;;;;;;;11.52;75.37;102219.38;5072359;28;19917;-85
2023/01/08 01:43:35;;;;;;;;;;;;;;;11.49;75.19;102217.41;5084647;28;20425;-85
2023/01/08 01:46:01;;;;;;;;;;;;;;;11.49;75.12;102213.91;5057371;28;20524;-85
2023/01/08 01:48:27;;;;;;;;;;;;;;;11.50;75.20;102218.34;5054484;28;19919;-85
2023/01/08 01:50:53;;;;;;;;;;;;;;;11.49;75.24;102219.13;5076976;28;19944;-84
2023/01/08 01:53:20;;;;;;;;;;;;;;;11.49;74.92;102208.66;5084010;28;19919;-84
2023/01/08 01:55:46;;;;;;;;;;;;;;;11.47;74.91;102208.56;5073638;28;19936;-85
2023/01/08 01:58:30;;;;;;;;;;;;;;;11.44;75.34;102205.72;5069033;28;19970;-84
2023/01/08 02:01:16;;;;;;;;;;;;;;;11.44;75.12;102205.72;5071026;28;20001;-85
2023/01/08 02:03:42;;;;;;;;;;;;;;;11.43;75.21;102202.97;5078679;28;19912;-84
2023/01/08 02:06:20;;;;;;;;;;;;;;;11.40;75.28;102209.81;5071607;28;19924;-85
2023/01/08 02:08:48;;;;;;;;;;;;;;;11.41;75.15;102203.78;5071786;28;20007;-85
2023/01/08 02:11:25;;;;;;;;;;;;;;;11.39;75.21;102205.38;5053575;28;20316;-85
2023/01/08 02:14:10;;;;;;;;;;;;;;;11.37;75.40;102201.75;5081261;28;19921;-85
2023/01/08 02:16:36;;;;;;;;;;;;;;;11.38;75.43;102205.25;5052687;28;19916;-85
2023/01/08 02:19:16;;;;;;;;;;;;;;;11.39;75.33;102202.78;5054871;28;19973;-85
2023/01/08 02:22:08;;;;;;;;;;;;;;;11.39;75.05;102199.25;5072134;28;20373;-85
2023/01/08 02:24:43;;;;;;;;;;;;;;;11.34;75.27;102195.38;5049106;28;19925;-85
2023/01/08 02:27:08;;;;;;;;;;;;;;;11.34;75.03;102195.38;5070140;28;19936;-85
2023/01/08 02:29:33;;;;;;;;;;;;;;;11.33;75.37;102196.19;5080265;28;20303;-86
2023/01/08 02:31:59;;;;;;;;;;;;;;;11.34;75.03;102191.03;5072573;28;20062;-86
2023/01/08 02:34:24;;;;;;;;;;;;;;;11.31;75.06;102193.44;5083847;28;20409;-86
2023/01/08 02:36:50;;;;;;;;;;;;;;;11.30;75.07;102185.47;5083742;28;20425;-86
2023/01/08 02:39:30;;;;;;;;;;;;;;;11.30;75.45;102189.03;5090812;28;19920;-86
2023/01/08 02:42:16;;;;;;;;;;;;;;;11.32;75.11;102190.03;5062520;28;19920;-86
2023/01/08 02:44:48;;;;;;;;;;;;;;;11.27;75.17;102194.00;5068908;28;19923;-86
2023/01/08 02:47:19;;;;;;;;;;;;;;;11.28;75.43;102189.69;5086961;28;19916;-86
2023/01/08 02:49:45;;;;;;;;;;;;;;;11.26;75.10;102192.22;5081332;28;19920;-86
2023/01/08 02:52:10;;;;;;;;;;;;;;;11.26;75.32;102193.88;5066167;28;19965;-86
2023/01/08 02:54:36;;;;;;;;;;;;;;;11.25;75.18;102189.47;5092899;28;19920;-86
2023/01/08 02:57:03;;;;;;;;;;;;;;;11.25;75.39;102193.00;5084685;28;20453;-86
2023/01/08 02:59:28;;;;;;;;;;;;;;;11.25;74.97;102192.09;5089462;28;19923;-86
2023/01/08 03:01:54;;;;;;;;;;;;;;;11.25;75.37;102182.53;5057698;28;19917;-86
2023/01/08 03:04:21;;;;;;;;;;;;;;;11.26;75.12;102183.44;5071523;28;19962;-86
2023/01/08 03:06:46;;;;;;;;;;;;;;;11.24;74.89;102180.72;5081978;28;19925;-85
2023/01/08 03:09:12;;;;;;;;;;;;;;;11.21;75.41;102183.09;5070433;28;20011;-85
2023/01/08 03:11:44;;;;;;;;;;;;;;;11.20;75.03;102179.59;5087027;28;20291;-85
2023/01/08 03:14:11;;;;;;;;;;;;;;;11.19;75.05;102187.31;5087166;28;19913;-84
2023/01/08 03:16:41;;;;;;;;;;;;;;;11.16;75.15;102182.75;5069838;28;19923;-85
2023/01/08 03:19:09;;;;;;;;;;;;;;;11.18;74.94;102180.28;5052869;28;19925;-84
2023/01/08 03:21:34;;;;;;;;;;;;;;;11.19;74.83;102185.59;5071014;28;19959;-86
2023/01/08 03:24:00;;;;;;;;;;;;;;;11.19;75.00;102185.59;5086298;28;19955;-86
2023/01/08 03:26:26;;;;;;;;;;;;;;;11.16;74.91;102177.53;5079287;28;19917;-85
2023/01/08 03:28:52;;;;;;;;;;;;;;;11.15;75.05;102188.81;5088082;28;20455;-85
2023/01/08 03:31:18;;;;;;;;;;;;;;;11.16;75.02;102194.94;5053019;28;20412;-85
2023/01/08 03:33:43;;;;;;;;;;;;;;;11.14;75.25;102197.41;5069199;28;19959;-85
2023/01/08 03:36:08;;;;;;;;;;;;;;;11.14;75.19;102194.81;5086538;28;20404;-85
2023/01/08 03:38:37;;;;;;;;;;;;;;;11.11;74.95;102199.81;5070269;28;20309;-85
2023/01/08 03:41:24;;;;;;;;;;;;;;;11.09;74.95;102198.81;5077263;28;19912;-85
2023/01/08 03:43:49;;;;;;;;;;;;;;;11.11;74.87;102193.66;5077406;28;19916;-85
2023/01/08 03:46:29;;;;;;;;;;;;;;;11.11;74.92;102194.59;5079331;28;19935;-85
2023/01/08 03:49:16;;;;;;;;;;;;;;;11.07;74.91;102197.78;5069613;28;19912;-86
2023/01/08 03:51:44;;;;;;;;;;;;;;;11.09;74.77;102192.63;5038475;28;19912;-86
2023/01/08 03:54:15;;;;;;;;;;;;;;;11.05;75.30;102199.38;5072310;28;20382;-86
2023/01/08 03:56:40;;;;;;;;;;;;;;;11.05;75.07;102206.28;5090391;28;20010;-85
2023/01/08 03:59:06;;;;;;;;;;;;;;;11.04;75.29;102207.97;5040506;28;20401;-85
2023/01/08 04:01:31;;;;;;;;;;;;;;;11.05;74.91;102203.66;5088834;28;19920;-85
2023/01/08 04:03:56;;;;;;;;;;;;;;;11.04;74.94;102210.59;5057583;28;20282;-85
2023/01/08 04:06:22;;;;;;;;;;;;;;;11.02;75.11;102209.56;5088007;28;20313;-86
2023/01/08 04:08:50;;;;;;;;;;;;;;;11.04;74.68;102212.31;5064333;28;19922;-86
2023/01/08 04:11:18;;;;;;;;;;;;;;;11.00;75.26;102214.66;5078599;28;19912;-86
2023/01/08 04:13:44;;;;;;;;;;;;;;;11.00;74.86;102211.16;5072526;28;19917;-86
2023/01/08 04:16:09;;;;;;;;;;;;;;;11.00;74.64;102217.28;5057176;28;19923;-85
2023/01/08 04:18:34;;;;;;;;;;;;;;;11.01;74.70;102215.59;5083120;28;19982;-85
2023/01/08 04:21:00;;;;;;;;;;;;;;;10.99;75.05;102222.44;5073191;28;19923;-86
2023/01/08 04:23:25;;;;;;;;;;;;;;;10.98;74.61;102224.13;5074536;28;19920;-86
2023/01/08 04:26:08;;;;;;;;;;;;;;;10.99;74.85;102225.03;5071439;28;20363;-86
2023/01/08 04:28:33;;;;;;;;;;;;;;;10.98;75.01;102224.13;5073779;28;20008;-86
2023/01/08 04:34:21;;;;;;;;;;;;;;;10.96;74.74;102223.09;5061994;28;19928;-85
2023/01/08 04:36:51;;;;;;;;;;;;;;;10.90;74.82;102224.31;5075074;28;19974;-85
2023/01/08 04:39:16;;;;;;;;;;;;;;;10.93;74.96;102220.25;5073538;28;19917;-85
2023/01/08 04:41:41;;;;;;;;;;;;;;;10.93;74.75;102225.47;5073816;28;20389;-83
2023/01/08 04:44:07;;;;;;;;;;;;;;;10.89;74.91;102219.91;5088295;28;19919;-86
2023/01/08 04:46:33;;;;;;;;;;;;;;;10.91;74.51;102229.69;5088053;28;19919;-85
2023/01/08 04:48:58;;;;;;;;;;;;;;;10.91;74.90;102227.06;5072560;28;19913;-85
2023/01/08 04:51:25;;;;;;;;;;;;;;;10.91;74.57;102223.53;5089082;28;19935;-86
2023/01/08 04:53:50;;;;;;;;;;;;;;;10.88;74.45;102223.28;5073628;28;19913;-86
2023/01/08 04:56:16;;;;;;;;;;;;;;;10.88;74.64;102221.63;5071633;28;19916;-86
2023/01/08 04:58:41;;;;;;;;;;;;;;;10.87;74.91;102211.94;5089483;28;20378;-85
2023/01/08 05:01:15;;;;;;;;;;;;;;;10.86;74.59;102212.75;5072122;28;20313;-86
2023/01/08 05:03:40;;;;;;;;;;;;;;;10.88;74.74;102215.44;5088034;28;19947;-86
2023/01/08 05:06:06;;;;;;;;;;;;;;;10.87;74.49;102211.03;5089103;28;19916;-84
2023/01/08 05:08:31;;;;;;;;;;;;;;;10.84;74.50;102218.63;5079158;28;19947;-85
2023/01/08 05:10:57;;;;;;;;;;;;;;;10.84;74.80;102227.41;5081567;28;19916;-85
2023/01/08 05:13:23;;;;;;;;;;;;;;;10.83;74.48;102220.34;5097636;28;19928;-85
2023/01/08 05:15:59;;;;;;;;;;;;;;;10.83;74.46;102212.50;5076325;28;19916;-85
2023/01/08 05:18:24;;;;;;;;;;;;;;;10.82;74.47;102222.84;5067451;28;19925;-85
2023/01/08 05:20:49;;;;;;;;;;;;;;;10.80;74.68;102222.72;5075600;28;20010;-85
2023/01/08 05:23:15;;;;;;;;;;;;;;;10.78;74.41;102216.47;5090600;28;20278;-86
2023/01/08 05:25:40;;;;;;;;;;;;;;;10.77;74.49;102228.63;5083799;28;20382;-86
2023/01/08 05:28:06;;;;;;;;;;;;;;;10.75;74.55;102224.06;5097937;28;20438;-86
2023/01/08 05:30:31;;;;;;;;;;;;;;;10.74;74.83;102227.47;5077655;28;19935;-86
2023/01/08 05:32:56;;;;;;;;;;;;;;;10.72;74.93;102227.34;5054678;28;20382;-86
2023/01/08 05:35:23;;;;;;;;;;;;;;;10.72;74.85;102229.97;5072916;28;20321;-89
2023/01/08 05:37:48;;;;;;;;;;;;;;;10.72;74.68;102237.81;5072683;28;19917;-85
2023/01/08 05:40:14;;;;;;;;;;;;;;;10.74;74.65;102232.72;5088835;28;20492;-84
2023/01/08 05:42:39;;;;;;;;;;;;;;;10.72;74.69;102236.91;5072557;28;19912;-85
2023/01/08 05:45:05;;;;;;;;;;;;;;;10.70;74.70;102228.94;5088375;28;20416;-86
2023/01/08 05:47:31;;;;;;;;;;;;;;;10.70;74.79;102228.03;5071170;28;19987;-85
2023/01/08 05:49:56;;;;;;;;;;;;;;;10.70;74.64;102230.66;5072567;28;19917;-85
2023/01/08 05:52:22;;;;;;;;;;;;;;;10.69;74.50;102227.13;5082824;28;19924;-85
2023/01/08 05:54:47;;;;;;;;;;;;;;;10.68;74.60;102232.22;5097746;28;19951;-85
2023/01/08 05:57:13;;;;;;;;;;;;;;;10.67;74.64;102228.72;5071978;28;20404;-86
2023/01/08 05:59:38;;;;;;;;;;;;;;;10.69;74.16;102234.03;5088012;28;20486;-84
2023/01/08 06:02:04;;;;;;;;;;;;;;;10.70;74.35;102230.66;5093100;28;19943;-85
2023/01/08 06:04:29;;;;;;;;;;;;;;;10.67;74.64;102241.78;5108089;28;20301;-85
2023/01/08 06:06:54;;;;;;;;;;;;;;;10.70;74.29;102242.00;5072743;28;20424;-86
2023/01/08 06:09:20;;;;;;;;;;;;;;;10.65;74.78;102237.25;5092204;28;19935;-86
2023/01/08 06:11:46;;;;;;;;;;;;;;;10.66;74.45;102233.81;5100803;28;20021;-85
2023/01/08 06:14:11;;;;;;;;;;;;;;;10.65;74.59;102234.63;5090100;28;19920;-85
2023/01/08 06:16:36;;;;;;;;;;;;;;;10.64;74.49;102238.91;5115449;28;19959;-85
2023/01/08 06:19:02;;;;;;;;;;;;;;;10.67;74.47;102246.06;5080615;28;20368;-85
2023/01/08 06:21:27;;;;;;;;;;;;;;;10.62;74.64;102245.72;5067298;28;19920;-85
2023/01/08 06:23:53;;;;;;;;;;;;;;;10.65;74.65;102253.81;5097016;28;19935;-85
2023/01/08 06:26:18;;;;;;;;;;;;;;;10.63;74.22;102255.41;5085183;28;20364;-86
2023/01/08 06:28:43;;;;;;;;;;;;;;;10.63;74.69;102262.34;5096380;28;20511;-85
2023/01/08 06:31:09;;;;;;;;;;;;;;;10.58;74.62;102256.72;5078831;28;20377;-86
2023/01/08 06:33:34;;;;;;;;;;;;;;;10.60;74.63;102268.22;5079117;28;19931;-85
2023/01/08 06:36:01;;;;;;;;;;;;;;;10.59;74.41;102259.47;5099980;28;19939;-85
2023/01/08 06:38:29;;;;;;;;;;;;;;;10.59;74.47;102256.84;5075684;28;20397;-85
2023/01/08 06:40:54;;;;;;;;;;;;;;;10.62;74.15;102268.34;5089106;28;20049;-84
2023/01/08 06:43:21;;;;;;;;;;;;;;;10.54;74.32;102268.66;5072619;28;20003;-85
2023/01/08 06:45:57;;;;;;;;;;;;;;;10.57;74.39;102270.59;5075403;28;20316;-85
2023/01/08 06:48:22;;;;;;;;;;;;;;;10.55;74.20;102270.47;5069413;28;19920;-86
2023/01/08 06:50:48;;;;;;;;;;;;;;;10.53;74.43;102269.44;5089572;28;20394;-85
2023/01/08 06:53:13;;;;;;;;;;;;;;;10.52;74.24;102269.31;5074779;28;19969;-84
2023/01/08 06:55:39;;;;;;;;;;;;;;;10.55;74.10;102277.41;5070132;28;20400;-85
2023/01/08 06:58:04;;;;;;;;;;;;;;;10.53;74.55;102273.75;5070344;28;20363;-85
2023/01/08 07:00:29;;;;;;;;;;;;;;;10.53;74.15;102276.38;5083378;28;20420;-85
2023/01/08 07:02:55;;;;;;;;;;;;;;;10.50;74.54;102281.38;5072676;28;19917;-85
2023/01/08 07:05:20;;;;;;;;;;;;;;;10.52;74.45;102288.53;5087836;28;20374;-85
2023/01/08 07:07:46;;;;;;;;;;;;;;;10.51;74.36;102289.28;5070396;28;20394;-86
2023/01/08 07:10:11;;;;;;;;;;;;;;;10.52;74.58;102287.59;5071019;28;19924;-85
2023/01/08 07:12:37;;;;;;;;;;;;;;;10.52;74.36;102284.97;5070919;28;20359;-84
2023/01/08 07:15:02;;;;;;;;;;;;;;;10.49;74.29;102284.75;5071134;28;19939;-85
2023/01/08 07:17:28;;;;;;;;;;;;;;;10.57;74.45;102287.16;5070985;28;20417;-84
2023/01/08 07:19:53;;;;;;;;;;;;;;;10.53;74.07;102289.44;5073016;28;19916;-86
2023/01/08 07:22:19;;;;;;;;;;;;;;;10.54;74.37;102289.56;5086900;28;20571;-86
2023/01/08 07:24:45;;;;;;;;;;;;;;;10.52;74.44;102298.03;5068619;28;19928;-86
2023/01/08 07:27:10;;;;;;;;;;;;;;;10.46;74.64;102300.19;5035085;28;19920;-85
2023/01/08 07:29:36;;;;;;;;;;;;;;;10.50;74.17;102300.56;5069395;28;20294;-86
2023/01/08 07:32:01;;;;;;;;;;;;;;;10.49;74.46;102306.53;5083393;28;20416;-86
2023/01/08 07:34:27;;;;;;;;;;;;;;;10.51;74.26;102302.34;5069449;28;19924;-85
2023/01/08 07:36:52;;;;;;;;;;;;;;;10.46;74.07;102298.47;5069844;28;19986;-85
2023/01/08 07:39:18;;;;;;;;;;;;;;;10.47;74.09;102309.84;5069574;28;20463;-87
2023/01/08 07:41:43;;;;;;;;;;;;;;;10.45;74.12;102303.59;5072410;28;20391;-86
2023/01/08 07:44:09;;;;;;;;;;;;;;;10.43;74.14;102310.38;5086078;28;20458;-84
2023/01/08 07:46:34;;;;;;;;;;;;;;;10.43;74.40;102307.78;5083231;28;20003;-87
2023/01/08 07:49:00;;;;;;;;;;;;;;;10.44;74.17;102307.91;5066603;28;20287;-87
2023/01/08 07:51:25;;;;;;;;;;;;;;;10.42;74.43;102308.56;5064731;28;19923;-88
2023/01/08 07:53:51;;;;;;;;;;;;;;;10.42;74.58;102311.19;5067246;28;19927;-86
2023/01/08 07:56:16;;;;;;;;;;;;;;;10.48;74.01;102309.97;5075576;28;19920;-86
2023/01/08 07:58:42;;;;;;;;;;;;;;;10.47;74.21;102317.66;5074388;28;19920;-86
2023/01/08 08:01:09;;;;;;;;;;;;;;;10.15;74.24;102259.44;5086182;28;19912;-86
2023/01/08 08:03:34;;;;;;;;;;;;;;;10.46;74.16;102310.66;5086203;28;19981;-86
2023/01/08 08:06:00;;;;;;;;;;;;;;;10.45;74.04;102314.03;5070683;28;19963;-86
2023/01/08 08:08:28;;;;;;;;;;;;;;;10.49;73.83;102313.47;5086360;28;20433;-87
2023/01/08 08:10:54;;;;;;;;;;;;;;;10.45;74.25;102312.31;5055874;28;20368;-84
2023/01/08 08:13:19;;;;;;;;;;;;;;;10.49;73.83;102309.16;5069608;28;19913;-84
2023/01/08 08:15:44;;;;;;;;;;;;;;;10.46;74.23;102313.25;5080057;28;19923;-84
2023/01/08 08:18:10;;;;;;;;;;;;;;;10.46;74.01;102314.16;5062695;28;20302;-84
2023/01/08 08:20:36;;;;;;;;;;;;;;;10.43;74.46;102316.50;5041408;28;20495;-84
2023/01/08 08:23:02;;;;;;;;;;;;;;;10.46;73.98;102311.53;5069940;28;20377;-84
2023/01/08 08:25:27;;;;;;;;;;;;;;;10.41;74.21;102318.09;5085267;28;19964;-85
2023/01/08 08:27:54;;;;;;;;;;;;;;;10.41;74.46;102327.63;5082438;28;20001;-84
2023/01/08 08:30:20;;;;;;;;;;;;;;;10.38;74.25;102329.19;5076158;28;19916;-85
2023/01/08 08:32:45;;;;;;;;;;;;;;;10.40;74.52;102334.56;5088511;28;19923;-85
2023/01/08 08:35:11;;;;;;;;;;;;;;;10.41;74.58;102331.16;5065548;28;19956;-86
2023/01/08 08:37:36;;;;;;;;;;;;;;;10.39;74.65;102327.50;5088472;28;19981;-85
2023/01/08 08:40:02;;;;;;;;;;;;;;;10.36;74.74;102338.63;5089601;28;19913;-86
2023/01/08 08:42:27;;;;;;;;;;;;;;;10.36;74.76;102336.00;5071529;28;20397;-86
2023/01/08 08:44:53;;;;;;;;;;;;;;;10.37;74.52;102330.00;5055912;28;19912;-85
2023/01/08 08:47:18;;;;;;;;;;;;;;;10.36;74.76;102325.56;5087220;28;19920;-84
2023/01/08 08:49:43;;;;;;;;;;;;;;;10.38;74.71;102330.91;5081643;28;20497;-85
2023/01/08 08:52:09;;;;;;;;;;;;;;;10.41;74.44;102330.25;5078831;28;20014;-84
2023/01/08 08:54:35;;;;;;;;;;;;;;;10.36;74.88;102328.16;5054490;28;20408;-84
2023/01/08 08:57:01;;;;;;;;;;;;;;;10.39;74.55;102320.59;5079878;28;19920;-84
2023/01/08 08:59:26;;;;;;;;;;;;;;;10.39;74.74;102325.81;5055054;28;19923;-86
2023/01/08 09:01:52;;;;;;;;;;;;;;;10.34;74.58;102319.31;5058230;28;20312;-85
2023/01/08 09:04:17;;;;;;;;;;;;;;;10.35;74.78;102309.75;5093083;28;20399;-84
2023/01/08 09:06:43;;;;;;;;;;;;;;;10.34;74.67;102313.19;5087800;28;20440;-86
2023/01/08 09:09:09;;;;;;;;;;;;;;;10.33;74.98;102313.97;5078420;28;20373;-86
2023/01/08 09:11:35;;;;;;;;;;;;;;;10.38;74.54;102310.94;5061344;28;20348;-88
2023/01/08 09:14:00;;;;;;;;;;;;;;;10.36;74.77;102306.38;5072489;28;19981;-88
2023/01/08 09:16:26;;;;;;;;;;;;;;;10.37;74.33;102309.13;5089011;28;19921;-86
2023/01/08 09:18:51;;;;;;;;;;;;;;;10.35;74.81;102302.88;5072246;28;20333;-83
2023/01/08 09:21:17;;;;;;;;;;;;;;;10.35;74.74;102301.94;5075036;28;20313;-85
2023/01/08 09:23:42;;;;;;;;;;;;;;;10.30;74.78;102292.81;5086928;28;20011;-86
2023/01/08 09:26:08;;;;;;;;;;;;;;;10.34;74.71;102298.41;5037035;28;19917;-86
2023/01/08 09:28:33;;;;;;;;;;;;;;;10.34;74.41;102294.91;5056151;28;20418;-87
2023/01/08 09:31:02;;;;;;;;;;;;;;;10.36;74.44;102289.00;5074023;28;19920;-83
2023/01/08 09:33:28;;;;;;;;;;;;;;;10.35;74.64;102281.97;5064484;28;20007;-87
2023/01/08 09:35:53;;;;;;;;;;;;;;;10.35;74.70;102281.97;5088662;28;20031;-90
2023/01/08 09:38:21;;;;;;;;;;;;;;;10.34;74.51;102279.22;5088988;28;19916;-88
2023/01/08 09:40:51;;;;;;;;;;;;;;;10.32;74.72;102275.59;5043319;28;20003;-90
2023/01/08 09:43:17;;;;;;;;;;;;;;;10.40;74.43;102271.88;5072120;28;20401;-86
2023/01/08 09:45:42;;;;;;;;;;;;;;;10.38;74.72;102263.03;5088618;28;19920;-87
2023/01/08 09:48:11;;;;;;;;;;;;;;;10.35;74.76;102263.69;5059115;28;19920;-88
2023/01/08 09:50:41;;;;;;;;;;;;;;;10.36;74.64;102267.22;5070569;28;19920;-89
2023/01/08 09:53:09;;;;;;;;;;;;;;;10.36;74.53;102256.75;5040251;28;19927;-89
2023/01/08 09:55:37;;;;;;;;;;;;;;;10.35;74.39;102254.91;5083344;28;19920;-89
2023/01/08 09:58:02;;;;;;;;;;;;;;;10.36;74.41;102255.06;5079994;28;19927;-89
2023/01/08 10:00:28;;;;;;;;;;;;;;;10.38;74.38;102252.56;5071586;28;20385;-89
2023/01/08 10:02:55;;;;;;;;;;;;;;;10.33;74.73;102248.69;5069449;28;19986;-88
2023/01/08 10:05:21;;;;;;;;;;;;;;;10.33;74.36;102251.31;5074330;28;20015;-87
2023/01/08 10:07:47;;;;;;;;;;;;;;;10.30;74.89;102236.28;5070285;28;19916;-88
2023/01/08 10:10:18;;;;;;;;;;;;;;;10.36;74.35;102242.00;5069776;28;20011;-86
2023/01/08 10:12:43;;;;;;;;;;;;;;;10.31;74.50;102227.69;5082239;28;19969;-86
2023/01/08 10:15:13;;;;;;;;;;;;;;;10.37;74.19;102232.44;5070309;28;19916;-87
2023/01/08 10:17:50;;;;;;;;;;;;;;;10.35;74.32;102221.91;5079044;28;19921;-88
2023/01/08 10:20:18;;;;;;;;;;;;;;;10.39;74.53;102220.44;5066566;28;19923;-87
2023/01/08 10:23:21;;;;;;;;;;;;;;;10.37;74.52;102217.72;5085469;28;19963;-87
2023/01/08 10:25:50;;;;;;;;;;;;;;;10.34;74.62;102211.34;5083952;28;19920;-87
2023/01/08 10:28:17;;;;;;;;;;;;;;;10.32;74.52;102212.91;5066469;28;19920;-87
2023/01/08 10:30:43;;;;;;;;;;;;;;;10.37;74.28;102206.34;5071761;28;19916;-86
2023/01/08 10:33:14;;;;;;;;;;;;;;;10.34;74.33;102209.63;5078872;28;19920;-84
2023/01/08 10:35:40;;;;;;;;;;;;;;;10.34;74.70;102199.19;5070630;28;20416;-86
2023/01/08 10:38:06;;;;;;;;;;;;;;;10.36;74.47;102199.31;5083376;28;20373;-85
2023/01/08 10:40:47;;;;;;;;;;;;;;;10.29;74.92;102197.94;5034769;28;19979;-85
2023/01/08 10:43:17;;;;;;;;;;;;;;;10.33;74.90;102192.16;5041984;28;19920;-87
2023/01/08 10:45:43;;;;;;;;;;;;;;;10.35;74.64;102190.56;5036330;28;19924;-86
2023/01/08 10:48:14;;;;;;;;;;;;;;;10.36;74.61;102194.09;5053357;28;19916;-86
2023/01/08 10:50:39;;;;;;;;;;;;;;;10.28;75.03;102192.53;5032533;28;20433;-86
2023/01/08 10:53:05;;;;;;;;;;;;;;;10.31;74.39;102185.00;5078731;28;19967;-87
2023/01/08 10:55:36;;;;;;;;;;;;;;;10.29;74.88;102186.56;5086050;28;20386;-88
2023/01/08 10:58:07;;;;;;;;;;;;;;;10.26;74.53;102191.50;5086953;28;20019;-87
2023/01/08 11:00:33;;;;;;;;;;;;;;;10.26;74.88;102189.81;5073891;28;19916;-88
2023/01/08 11:03:00;;;;;;;;;;;;;;;10.26;74.99;102181.06;5086281;28;19916;-85
2023/01/08 11:05:29;;;;;;;;;;;;;;;10.24;75.16;102180.03;5085623;28;19938;-85
2023/01/08 11:07:55;;;;;;;;;;;;;;;10.25;75.40;102177.56;5079251;28;20275;-84
2023/01/08 11:10:24;;;;;;;;;;;;;;;10.23;75.51;102173.91;5088187;28;19912;-84
2023/01/08 11:12:53;;;;;;;;;;;;;;;10.37;74.67;102177.63;5087440;28;19923;-83
2023/01/08 11:15:22;;;;;;;;;;;;;;;10.53;74.62;102179.72;5086146;28;20282;-83
2023/01/08 11:17:47;;;;;;;;;;;;;;;10.34;75.24;102177.38;5072833;28;19950;-88
2023/01/08 11:20:23;;;;;;;;;;;;;;;10.27;75.24;102168.16;5069752;28;20351;-85
2023/01/08 11:22:49;;;;;;;;;;;;;;;10.28;75.13;102164.72;5062036;28;19912;-86
2023/01/08 11:25:17;;;;;;;;;;;;;;;10.27;75.41;102159.41;5081597;28;19966;-87
2023/01/08 11:27:43;;;;;;;;;;;;;;;10.30;74.88;102165.78;5084759;28;19917;-89
2023/01/08 11:30:13;;;;;;;;;;;;;;;10.24;74.94;102162.66;5069224;28;19917;-88
2023/01/08 11:32:45;;;;;;;;;;;;;;;10.33;74.79;102152.09;5035890;28;19917;-88
2023/01/08 11:35:21;;;;;;;;;;;;;;;10.31;74.51;102159.78;5069904;28;19920;-88
2023/01/08 11:37:49;;;;;;;;;;;;;;;10.27;74.97;102157.69;5086137;28;19969;-87
2023/01/08 11:40:16;;;;;;;;;;;;;;;10.25;74.71;102155.75;5071235;28;20128;-86
2023/01/08 11:42:55;;;;;;;;;;;;;;;10.29;74.69;102152.59;5053402;28;19923;-87
2023/01/08 11:45:39;;;;;;;;;;;;;;;10.26;74.85;102153.25;5080221;28;19920;-87
2023/01/08 11:48:13;;;;;;;;;;;;;;;10.27;74.59;102149.88;5068012;28;19916;-87
2023/01/08 11:50:41;;;;;;;;;;;;;;;10.25;74.41;102143.63;5086136;28;19963;-88
2023/01/08 11:53:22;;;;;;;;;;;;;;;10.27;74.26;102144.66;5070718;28;19935;-87
2023/01/08 11:55:57;;;;;;;;;;;;;;;10.24;74.63;102143.50;5063327;28;19912;-87
2023/01/08 11:58:31;;;;;;;;;;;;;;;10.28;74.59;102142.94;5081195;28;19917;-88
2023/01/08 12:01:19;;;;;;;;;;;;;;;10.26;74.67;102137.59;5086039;28;19917;-88
2023/01/08 12:03:46;;;;;;;;;;;;;;;10.22;74.78;102132.91;5065369;28;19921;-88
2023/01/08 12:06:30;;;;;;;;;;;;;;;10.27;74.41;102134.19;5068335;28;19932;-87
2023/01/08 12:09:14;;;;;;;;;;;;;;;10.31;74.79;102131.06;5063578;28;19948;-87
2023/01/08 12:11:54;;;;;;;;;;;;;;;10.33;74.71;102126.88;5074688;28;19951;-87
2023/01/08 12:14:20;;;;;;;;;;;;;;;10.34;74.22;102127.78;5090253;28;20552;-85
2023/01/08 12:16:45;;;;;;;;;;;;;;;10.35;74.37;102121.75;5089413;28;20022;-87
2023/01/08 12:19:29;;;;;;;;;;;;;;;10.35;74.78;102125.28;5089291;28;20024;-88
2023/01/08 12:21:54;;;;;;;;;;;;;;;10.35;74.51;102127.91;5089674;28;20062;-88
2023/01/08 12:24:35;;;;;;;;;;;;;;;10.39;74.61;102127.34;5073723;28;19998;-87
2023/01/08 12:27:01;;;;;;;;;;;;;;;10.41;74.49;102126.53;5073814;28;20362;-88
2023/01/08 12:29:45;;;;;;;;;;;;;;;10.39;74.12;102121.19;5089786;28;20003;-86
2023/01/08 12:32:19;;;;;;;;;;;;;;;10.42;74.61;102131.88;5074043;28;19920;-88
2023/01/08 12:34:48;;;;;;;;;;;;;;;10.42;74.57;102129.28;5089416;28;20715;-89
2023/01/08 12:37:14;;;;;;;;;;;;;;;10.38;74.44;102119.38;5089530;28;20378;-89
2023/01/08 12:39:42;;;;;;;;;;;;;;;10.41;74.37;102135.28;5083807;28;20389;-89
2023/01/08 12:42:10;;;;;;;;;;;;;;;10.39;74.51;102131.63;5081264;28;20002;-88